Miles City, Montana
Current Conditions -  °F | °C
As of 8:53 AM on Saturday 22 Nov 2014 (Local Time) from KMLS Reporting Station
Overcast Overcast  
Wind Chill: 27°   Ceiling: 9000
Heat Index: 35°   Visibility: 10mi
Dew Point: 27°   Wind: 10mph
Humidity: 72%   Direction: 150°SSE
Pressure: 29.38"   Gusts: NA
Location:  46.41°N, 105.84°W
Report Text: KMLS 221553Z AUTO 15009KT 10SM OVC090 02/M03 A2938 RMK AO2 SLP966 T00171028
Loading
Personal Weather Stations






























Interactive Weather Map New forecast layout! Learn more

10-Day Weather Forecast

Advertisements
Track Severe Weather on mobile